sensor_id;sensor_type;location;lat;lon;timestamp;P1;durP1;ratioP1;P2;durP2;ratioP2
71490;SDS011;59307;50.060;9.150;2023-07-29T00:00:45;6.03;;;3.25;;
71490;SDS011;59307;50.060;9.150;2023-07-29T00:03:10;5.37;;;3.40;;
71490;SDS011;59307;50.060;9.150;2023-07-29T00:05:39;5.27;;;3.00;;
71490;SDS011;59307;50.060;9.150;2023-07-29T00:08:04;5.15;;;3.30;;
71490;SDS011;59307;50.060;9.150;2023-07-29T00:10:33;6.33;;;3.13;;
71490;SDS011;59307;50.060;9.150;2023-07-29T00:13:00;10.63;;;3.72;;
71490;SDS011;59307;50.060;9.150;2023-07-29T00:15:25;6.47;;;3.43;;
71490;SDS011;59307;50.060;9.150;2023-07-29T00:17:50;5.37;;;3.53;;
71490;SDS011;59307;50.060;9.150;2023-07-29T00:20:16;9.77;;;4.97;;
71490;SDS011;59307;50.060;9.150;2023-07-29T00:22:41;5.87;;;3.20;;
71490;SDS011;59307;50.060;9.150;2023-07-29T00:25:06;4.03;;;2.90;;
71490;SDS011;59307;50.060;9.150;2023-07-29T00:27:32;5.70;;;3.50;;
71490;SDS011;59307;50.060;9.150;2023-07-29T00:29:57;5.47;;;3.57;;
71490;SDS011;59307;50.060;9.150;2023-07-29T00:32:22;6.87;;;3.60;;
71490;SDS011;59307;50.060;9.150;2023-07-29T00:34:47;6.90;;;3.23;;
71490;SDS011;59307;50.060;9.150;2023-07-29T00:37:12;6.60;;;3.30;;
71490;SDS011;59307;50.060;9.150;2023-07-29T00:39:37;6.83;;;3.47;;
71490;SDS011;59307;50.060;9.150;2023-07-29T00:42:03;6.93;;;3.50;;
71490;SDS011;59307;50.060;9.150;2023-07-29T00:44:28;6.55;;;3.40;;
71490;SDS011;59307;50.060;9.150;2023-07-29T00:46:53;6.80;;;3.63;;
71490;SDS011;59307;50.060;9.150;2023-07-29T00:49:19;5.37;;;3.10;;
71490;SDS011;59307;50.060;9.150;2023-07-29T00:51:44;7.33;;;3.40;;
71490;SDS011;59307;50.060;9.150;2023-07-29T00:54:10;5.27;;;3.23;;
71490;SDS011;59307;50.060;9.150;2023-07-29T00:56:35;4.32;;;2.97;;
71490;SDS011;59307;50.060;9.150;2023-07-29T00:59:01;7.80;;;3.33;;
71490;SDS011;59307;50.060;9.150;2023-07-29T01:01:27;4.60;;;2.83;;
71490;SDS011;59307;50.060;9.150;2023-07-29T01:03:52;8.88;;;3.15;;
71490;SDS011;59307;50.060;9.150;2023-07-29T01:09:02;6.43;;;3.25;;
71490;SDS011;59307;50.060;9.150;2023-07-29T01:16:44;4.47;;;3.20;;
71490;SDS011;59307;50.060;9.150;2023-07-29T01:19:29;8.23;;;3.43;;
71490;SDS011;59307;50.060;9.150;2023-07-29T01:21:58;5.85;;;2.88;;
71490;SDS011;59307;50.060;9.150;2023-07-29T01:24:23;7.83;;;3.60;;
71490;SDS011;59307;50.060;9.150;2023-07-29T01:26:48;6.77;;;3.63;;
71490;SDS011;59307;50.060;9.150;2023-07-29T01:29:13;10.47;;;5.13;;
71490;SDS011;59307;50.060;9.150;2023-07-29T01:31:40;8.70;;;4.73;;
71490;SDS011;59307;50.060;9.150;2023-07-29T01:34:24;6.70;;;3.60;;
71490;SDS011;59307;50.060;9.150;2023-07-29T01:36:51;6.00;;;3.40;;
71490;SDS011;59307;50.060;9.150;2023-07-29T01:39:17;5.37;;;3.50;;
71490;SDS011;59307;50.060;9.150;2023-07-29T01:41:45;5.10;;;3.17;;
71490;SDS011;59307;50.060;9.150;2023-07-29T01:44:10;5.70;;;3.13;;
71490;SDS011;59307;50.060;9.150;2023-07-29T01:46:36;5.80;;;2.85;;
71490;SDS011;59307;50.060;9.150;2023-07-29T01:49:02;4.97;;;2.93;;
71490;SDS011;59307;50.060;9.150;2023-07-29T01:51:27;5.13;;;3.00;;
71490;SDS011;59307;50.060;9.150;2023-07-29T01:53:52;5.60;;;2.80;;
71490;SDS011;59307;50.060;9.150;2023-07-29T01:56:17;3.55;;;2.40;;
71490;SDS011;59307;50.060;9.150;2023-07-29T01:58:43;5.40;;;2.65;;
71490;SDS011;59307;50.060;9.150;2023-07-29T02:01:08;5.67;;;2.70;;
71490;SDS011;59307;50.060;9.150;2023-07-29T02:03:33;4.17;;;2.60;;
71490;SDS011;59307;50.060;9.150;2023-07-29T02:05:58;4.10;;;2.73;;
71490;SDS011;59307;50.060;9.150;2023-07-29T02:08:23;4.80;;;2.83;;
71490;SDS011;59307;50.060;9.150;2023-07-29T02:10:48;5.90;;;2.80;;
71490;SDS011;59307;50.060;9.150;2023-07-29T02:13:14;3.80;;;2.60;;
71490;SDS011;59307;50.060;9.150;2023-07-29T02:15:39;4.47;;;2.67;;
71490;SDS011;59307;50.060;9.150;2023-07-29T02:18:04;4.30;;;2.67;;
71490;SDS011;59307;50.060;9.150;2023-07-29T02:20:31;5.68;;;3.47;;
71490;SDS011;59307;50.060;9.150;2023-07-29T02:22:56;4.77;;;3.10;;
71490;SDS011;59307;50.060;9.150;2023-07-29T02:25:21;4.67;;;3.23;;
71490;SDS011;59307;50.060;9.150;2023-07-29T02:27:46;4.80;;;3.10;;
71490;SDS011;59307;50.060;9.150;2023-07-29T02:30:12;6.30;;;3.17;;
71490;SDS011;59307;50.060;9.150;2023-07-29T02:32:37;5.37;;;2.80;;
71490;SDS011;59307;50.060;9.150;2023-07-29T02:35:03;4.67;;;3.00;;
71490;SDS011;59307;50.060;9.150;2023-07-29T02:37:28;5.90;;;3.03;;
71490;SDS011;59307;50.060;9.150;2023-07-29T02:39:53;4.70;;;3.05;;
71490;SDS011;59307;50.060;9.150;2023-07-29T02:42:18;6.05;;;3.25;;
71490;SDS011;59307;50.060;9.150;2023-07-29T02:44:43;4.73;;;2.83;;
71490;SDS011;59307;50.060;9.150;2023-07-29T02:47:09;4.23;;;2.70;;
71490;SDS011;59307;50.060;9.150;2023-07-29T02:49:34;4.60;;;2.85;;
71490;SDS011;59307;50.060;9.150;2023-07-29T02:51:59;5.90;;;3.40;;
71490;SDS011;59307;50.060;9.150;2023-07-29T02:54:24;5.15;;;3.10;;
71490;SDS011;59307;50.060;9.150;2023-07-29T02:56:50;6.45;;;3.65;;
71490;SDS011;59307;50.060;9.150;2023-07-29T02:59:15;4.60;;;3.00;;
71490;SDS011;59307;50.060;9.150;2023-07-29T03:01:40;4.93;;;3.40;;
71490;SDS011;59307;50.060;9.150;2023-07-29T03:04:05;3.73;;;2.50;;
71490;SDS011;59307;50.060;9.150;2023-07-29T03:06:31;4.13;;;2.70;;
71490;SDS011;59307;50.060;9.150;2023-07-29T03:08:56;6.13;;;4.03;;
71490;SDS011;59307;50.060;9.150;2023-07-29T03:11:21;4.87;;;2.97;;
71490;SDS011;59307;50.060;9.150;2023-07-29T03:13:46;4.80;;;2.67;;
71490;SDS011;59307;50.060;9.150;2023-07-29T03:16:12;4.77;;;2.90;;
71490;SDS011;59307;50.060;9.150;2023-07-29T03:18:38;4.65;;;3.03;;
71490;SDS011;59307;50.060;9.150;2023-07-29T03:21:04;4.13;;;2.73;;
71490;SDS011;59307;50.060;9.150;2023-07-29T03:23:29;4.70;;;2.80;;
71490;SDS011;59307;50.060;9.150;2023-07-29T03:25:55;4.23;;;2.50;;
71490;SDS011;59307;50.060;9.150;2023-07-29T03:28:22;7.20;;;2.35;;
71490;SDS011;59307;50.060;9.150;2023-07-29T03:30:48;4.15;;;2.80;;
71490;SDS011;59307;50.060;9.150;2023-07-29T03:33:13;6.50;;;2.80;;
71490;SDS011;59307;50.060;9.150;2023-07-29T03:35:38;5.20;;;2.50;;
71490;SDS011;59307;50.060;9.150;2023-07-29T03:38:03;4.23;;;2.60;;
71490;SDS011;59307;50.060;9.150;2023-07-29T03:40:28;6.27;;;3.00;;
71490;SDS011;59307;50.060;9.150;2023-07-29T03:42:53;7.20;;;2.50;;
71490;SDS011;59307;50.060;9.150;2023-07-29T03:45:18;5.63;;;2.70;;
71490;SDS011;59307;50.060;9.150;2023-07-29T03:47:44;6.40;;;3.00;;
71490;SDS011;59307;50.060;9.150;2023-07-29T03:50:09;5.00;;;3.03;;
71490;SDS011;59307;50.060;9.150;2023-07-29T03:52:34;5.27;;;2.83;;
71490;SDS011;59307;50.060;9.150;2023-07-29T03:54:59;5.23;;;3.13;;
71490;SDS011;59307;50.060;9.150;2023-07-29T03:57:24;6.33;;;3.47;;
71490;SDS011;59307;50.060;9.150;2023-07-29T03:59:50;10.40;;;5.00;;
71490;SDS011;59307;50.060;9.150;2023-07-29T04:02:15;7.27;;;4.63;;
71490;SDS011;59307;50.060;9.150;2023-07-29T04:04:40;10.80;;;6.80;;
71490;SDS011;59307;50.060;9.150;2023-07-29T04:07:07;9.65;;;5.32;;
71490;SDS011;59307;50.060;9.150;2023-07-29T04:09:32;7.10;;;3.50;;
71490;SDS011;59307;50.060;9.150;2023-07-29T04:11:58;5.33;;;3.30;;
71490;SDS011;59307;50.060;9.150;2023-07-29T04:14:23;6.83;;;3.20;;
71490;SDS011;59307;50.060;9.150;2023-07-29T04:16:48;5.20;;;3.63;;
71490;SDS011;59307;50.060;9.150;2023-07-29T04:19:14;4.80;;;2.80;;
71490;SDS011;59307;50.060;9.150;2023-07-29T04:21:39;4.87;;;2.50;;
71490;SDS011;59307;50.060;9.150;2023-07-29T04:24:04;2.93;;;2.20;;
71490;SDS011;59307;50.060;9.150;2023-07-29T04:26:29;5.23;;;2.33;;
71490;SDS011;59307;50.060;9.150;2023-07-29T04:28:55;3.70;;;2.40;;
71490;SDS011;59307;50.060;9.150;2023-07-29T04:31:20;5.63;;;2.50;;
71490;SDS011;59307;50.060;9.150;2023-07-29T04:33:45;3.70;;;2.47;;
71490;SDS011;59307;50.060;9.150;2023-07-29T04:36:10;4.40;;;2.33;;
71490;SDS011;59307;50.060;9.150;2023-07-29T04:38:36;4.77;;;2.20;;
71490;SDS011;59307;50.060;9.150;2023-07-29T04:41:02;8.67;;;2.40;;
71490;SDS011;59307;50.060;9.150;2023-07-29T04:43:27;7.07;;;2.70;;
71490;SDS011;59307;50.060;9.150;2023-07-29T04:45:53;3.55;;;2.42;;
71490;SDS011;59307;50.060;9.150;2023-07-29T04:48:18;8.13;;;2.33;;
71490;SDS011;59307;50.060;9.150;2023-07-29T04:50:43;3.50;;;2.30;;
71490;SDS011;59307;50.060;9.150;2023-07-29T04:53:08;4.73;;;2.20;;
71490;SDS011;59307;50.060;9.150;2023-07-29T04:55:34;8.13;;;2.27;;
71490;SDS011;59307;50.060;9.150;2023-07-29T04:57:59;3.93;;;2.17;;
71490;SDS011;59307;50.060;9.150;2023-07-29T05:00:25;3.03;;;1.90;;
71490;SDS011;59307;50.060;9.150;2023-07-29T05:02:50;4.37;;;2.10;;
71490;SDS011;59307;50.060;9.150;2023-07-29T05:05:16;4.07;;;2.13;;
71490;SDS011;59307;50.060;9.150;2023-07-29T05:07:41;4.00;;;2.13;;
71490;SDS011;59307;50.060;9.150;2023-07-29T05:10:06;4.03;;;2.17;;
71490;SDS011;59307;50.060;9.150;2023-07-29T05:12:32;5.97;;;2.20;;
71490;SDS011;59307;50.060;9.150;2023-07-29T05:14:57;5.38;;;2.20;;
71490;SDS011;59307;50.060;9.150;2023-07-29T05:17:22;2.90;;;1.83;;
71490;SDS011;59307;50.060;9.150;2023-07-29T05:19:48;3.50;;;2.30;;
71490;SDS011;59307;50.060;9.150;2023-07-29T05:22:13;3.10;;;2.00;;
71490;SDS011;59307;50.060;9.150;2023-07-29T05:24:38;6.50;;;2.30;;
71490;SDS011;59307;50.060;9.150;2023-07-29T05:27:03;4.07;;;2.00;;
71490;SDS011;59307;50.060;9.150;2023-07-29T05:29:28;5.20;;;2.10;;
71490;SDS011;59307;50.060;9.150;2023-07-29T05:31:54;4.70;;;2.87;;
71490;SDS011;59307;50.060;9.150;2023-07-29T05:34:19;3.67;;;2.20;;
71490;SDS011;59307;50.060;9.150;2023-07-29T05:36:44;3.10;;;1.87;;
71490;SDS011;59307;50.060;9.150;2023-07-29T05:39:09;4.47;;;2.03;;
71490;SDS011;59307;50.060;9.150;2023-07-29T05:41:35;3.10;;;2.00;;
71490;SDS011;59307;50.060;9.150;2023-07-29T05:44:00;3.37;;;2.00;;
71490;SDS011;59307;50.060;9.150;2023-07-29T05:46:25;4.47;;;2.13;;
71490;SDS011;59307;50.060;9.150;2023-07-29T05:48:51;5.05;;;2.40;;
71490;SDS011;59307;50.060;9.150;2023-07-29T05:51:16;4.23;;;2.00;;
71490;SDS011;59307;50.060;9.150;2023-07-29T05:53:41;3.20;;;1.60;;
71490;SDS011;59307;50.060;9.150;2023-07-29T05:56:06;4.13;;;2.00;;
71490;SDS011;59307;50.060;9.150;2023-07-29T05:58:32;3.33;;;1.70;;
71490;SDS011;59307;50.060;9.150;2023-07-29T06:00:57;3.30;;;1.93;;
71490;SDS011;59307;50.060;9.150;2023-07-29T06:03:22;2.90;;;2.03;;
71490;SDS011;59307;50.060;9.150;2023-07-29T06:05:48;3.90;;;2.03;;
71490;SDS011;59307;50.060;9.150;2023-07-29T06:08:13;2.72;;;1.65;;
71490;SDS011;59307;50.060;9.150;2023-07-29T06:10:39;2.53;;;1.70;;
71490;SDS011;59307;50.060;9.150;2023-07-29T06:13:04;4.00;;;2.00;;
71490;SDS011;59307;50.060;9.150;2023-07-29T06:15:29;2.43;;;1.70;;
71490;SDS011;59307;50.060;9.150;2023-07-29T06:17:54;6.83;;;3.60;;
71490;SDS011;59307;50.060;9.150;2023-07-29T06:20:19;3.77;;;1.63;;
71490;SDS011;59307;50.060;9.150;2023-07-29T06:22:45;3.27;;;2.10;;
71490;SDS011;59307;50.060;9.150;2023-07-29T06:25:10;4.90;;;1.90;;
71490;SDS011;59307;50.060;9.150;2023-07-29T06:27:35;2.73;;;1.83;;
71490;SDS011;59307;50.060;9.150;2023-07-29T06:30:00;3.13;;;1.70;;
71490;SDS011;59307;50.060;9.150;2023-07-29T06:32:26;2.90;;;1.73;;
71490;SDS011;59307;50.060;9.150;2023-07-29T06:34:51;5.23;;;1.90;;
71490;SDS011;59307;50.060;9.150;2023-07-29T06:37:18;4.00;;;1.83;;
71490;SDS011;59307;50.060;9.150;2023-07-29T06:39:44;4.80;;;2.00;;
71490;SDS011;59307;50.060;9.150;2023-07-29T06:42:09;5.87;;;1.80;;
71490;SDS011;59307;50.060;9.150;2023-07-29T06:44:34;3.07;;;1.60;;
71490;SDS011;59307;50.060;9.150;2023-07-29T06:46:59;2.57;;;1.70;;
71490;SDS011;59307;50.060;9.150;2023-07-29T06:49:24;4.90;;;2.10;;
71490;SDS011;59307;50.060;9.150;2023-07-29T06:51:49;2.90;;;1.90;;
71490;SDS011;59307;50.060;9.150;2023-07-29T06:54:16;3.07;;;1.80;;
71490;SDS011;59307;50.060;9.150;2023-07-29T06:56:41;7.45;;;2.00;;
71490;SDS011;59307;50.060;9.150;2023-07-29T06:59:06;4.60;;;2.23;;
71490;SDS011;59307;50.060;9.150;2023-07-29T07:01:31;3.00;;;1.90;;
71490;SDS011;59307;50.060;9.150;2023-07-29T07:03:56;3.93;;;2.00;;
71490;SDS011;59307;50.060;9.150;2023-07-29T07:06:23;3.67;;;1.75;;
71490;SDS011;59307;50.060;9.150;2023-07-29T07:08:49;3.05;;;1.80;;
71490;SDS011;59307;50.060;9.150;2023-07-29T07:11:14;2.70;;;1.80;;
71490;SDS011;59307;50.060;9.150;2023-07-29T07:13:40;4.37;;;2.00;;
71490;SDS011;59307;50.060;9.150;2023-07-29T07:16:05;4.07;;;2.10;;
71490;SDS011;59307;50.060;9.150;2023-07-29T07:18:30;4.53;;;2.20;;
71490;SDS011;59307;50.060;9.150;2023-07-29T07:20:55;4.60;;;2.07;;
71490;SDS011;59307;50.060;9.150;2023-07-29T07:23:20;3.67;;;1.93;;
71490;SDS011;59307;50.060;9.150;2023-07-29T07:25:46;3.50;;;2.17;;
71490;SDS011;59307;50.060;9.150;2023-07-29T07:28:11;4.50;;;1.73;;
71490;SDS011;59307;50.060;9.150;2023-07-29T07:30:39;3.13;;;1.97;;
71490;SDS011;59307;50.060;9.150;2023-07-29T07:33:05;2.80;;;1.80;;
71490;SDS011;59307;50.060;9.150;2023-07-29T07:35:30;3.77;;;2.00;;
71490;SDS011;59307;50.060;9.150;2023-07-29T07:37:55;3.37;;;1.93;;
71490;SDS011;59307;50.060;9.150;2023-07-29T07:40:20;3.37;;;1.90;;
71490;SDS011;59307;50.060;9.150;2023-07-29T07:42:46;3.53;;;2.10;;
71490;SDS011;59307;50.060;9.150;2023-07-29T07:45:11;6.27;;;2.00;;
71490;SDS011;59307;50.060;9.150;2023-07-29T07:47:36;6.00;;;2.30;;
71490;SDS011;59307;50.060;9.150;2023-07-29T07:50:01;3.67;;;2.13;;
71490;SDS011;59307;50.060;9.150;2023-07-29T07:52:27;5.50;;;2.33;;
71490;SDS011;59307;50.060;9.150;2023-07-29T07:54:52;5.30;;;2.90;;
71490;SDS011;59307;50.060;9.150;2023-07-29T07:57:19;6.55;;;2.75;;
71490;SDS011;59307;50.060;9.150;2023-07-29T07:59:45;7.65;;;3.83;;
71490;SDS011;59307;50.060;9.150;2023-07-29T08:02:10;11.57;;;5.23;;
71490;SDS011;59307;50.060;9.150;2023-07-29T08:04:36;9.57;;;4.70;;
71490;SDS011;59307;50.060;9.150;2023-07-29T08:07:01;7.20;;;3.57;;
71490;SDS011;59307;50.060;9.150;2023-07-29T08:09:26;4.63;;;2.87;;
71490;SDS011;59307;50.060;9.150;2023-07-29T08:11:51;6.47;;;3.33;;
71490;SDS011;59307;50.060;9.150;2023-07-29T08:14:16;5.77;;;3.00;;
71490;SDS011;59307;50.060;9.150;2023-07-29T08:16:42;4.63;;;3.00;;
71490;SDS011;59307;50.060;9.150;2023-07-29T08:19:07;5.03;;;2.80;;
71490;SDS011;59307;50.060;9.150;2023-07-29T08:21:34;4.70;;;2.67;;
71490;SDS011;59307;50.060;9.150;2023-07-29T08:23:59;8.03;;;2.77;;
71490;SDS011;59307;50.060;9.150;2023-07-29T08:26:24;4.13;;;2.90;;
71490;SDS011;59307;50.060;9.150;2023-07-29T08:28:50;3.23;;;2.50;;
71490;SDS011;59307;50.060;9.150;2023-07-29T08:31:15;3.20;;;2.30;;
71490;SDS011;59307;50.060;9.150;2023-07-29T08:33:40;3.43;;;2.30;;
71490;SDS011;59307;50.060;9.150;2023-07-29T08:36:05;4.33;;;2.27;;
71490;SDS011;59307;50.060;9.150;2023-07-29T08:38:30;4.10;;;2.17;;
71490;SDS011;59307;50.060;9.150;2023-07-29T08:43:27;5.30;;;2.47;;
71490;SDS011;59307;50.060;9.150;2023-07-29T08:45:54;3.22;;;1.90;;
71490;SDS011;59307;50.060;9.150;2023-07-29T08:48:20;3.73;;;1.80;;
71490;SDS011;59307;50.060;9.150;2023-07-29T08:50:48;2.28;;;1.70;;
71490;SDS011;59307;50.060;9.150;2023-07-29T08:53:13;4.10;;;1.90;;
71490;SDS011;59307;50.060;9.150;2023-07-29T08:55:39;3.67;;;1.43;;
71490;SDS011;59307;50.060;9.150;2023-07-29T08:58:04;3.00;;;1.50;;
71490;SDS011;59307;50.060;9.150;2023-07-29T09:00:30;2.78;;;1.50;;
71490;SDS011;59307;50.060;9.150;2023-07-29T09:02:55;3.30;;;1.50;;
71490;SDS011;59307;50.060;9.150;2023-07-29T09:05:22;2.35;;;1.48;;
71490;SDS011;59307;50.060;9.150;2023-07-29T09:07:48;4.90;;;1.50;;
71490;SDS011;59307;50.060;9.150;2023-07-29T09:10:14;2.47;;;1.60;;
71490;SDS011;59307;50.060;9.150;2023-07-29T09:12:40;1.97;;;1.20;;
71490;SDS011;59307;50.060;9.150;2023-07-29T09:15:05;2.22;;;1.30;;
71490;SDS011;59307;50.060;9.150;2023-07-29T09:17:31;2.40;;;1.30;;
71490;SDS011;59307;50.060;9.150;2023-07-29T09:19:57;2.20;;;1.40;;
71490;SDS011;59307;50.060;9.150;2023-07-29T09:22:23;1.50;;;1.20;;
71490;SDS011;59307;50.060;9.150;2023-07-29T09:24:49;1.90;;;1.30;;
71490;SDS011;59307;50.060;9.150;2023-07-29T09:27:24;3.17;;;1.42;;
71490;SDS011;59307;50.060;9.150;2023-07-29T09:29:50;1.73;;;1.20;;
71490;SDS011;59307;50.060;9.150;2023-07-29T09:32:22;1.40;;;1.17;;
71490;SDS011;59307;50.060;9.150;2023-07-29T09:34:47;3.70;;;1.30;;
71490;SDS011;59307;50.060;9.150;2023-07-29T09:37:22;2.80;;;1.20;;
71490;SDS011;59307;50.060;9.150;2023-07-29T09:39:47;1.45;;;1.08;;
71490;SDS011;59307;50.060;9.150;2023-07-29T09:42:19;1.43;;;1.10;;
71490;SDS011;59307;50.060;9.150;2023-07-29T09:44:45;1.63;;;1.20;;
71490;SDS011;59307;50.060;9.150;2023-07-29T09:47:18;2.17;;;1.30;;
71490;SDS011;59307;50.060;9.150;2023-07-29T09:49:43;2.70;;;1.60;;
71490;SDS011;59307;50.060;9.150;2023-07-29T09:52:10;3.40;;;1.27;;
71490;SDS011;59307;50.060;9.150;2023-07-29T09:54:36;2.15;;;1.40;;
71490;SDS011;59307;50.060;9.150;2023-07-29T09:57:01;1.73;;;1.20;;
71490;SDS011;59307;50.060;9.150;2023-07-29T09:59:27;2.17;;;1.30;;
71490;SDS011;59307;50.060;9.150;2023-07-29T10:01:52;2.10;;;1.33;;
71490;SDS011;59307;50.060;9.150;2023-07-29T10:04:17;2.43;;;1.10;;
71490;SDS011;59307;50.060;9.150;2023-07-29T10:06:43;5.53;;;1.30;;
71490;SDS011;59307;50.060;9.150;2023-07-29T10:09:11;1.80;;;1.23;;
71490;SDS011;59307;50.060;9.150;2023-07-29T10:11:36;1.92;;;1.20;;
71490;SDS011;59307;50.060;9.150;2023-07-29T10:14:02;2.43;;;1.50;;
71490;SDS011;59307;50.060;9.150;2023-07-29T10:16:27;2.83;;;1.40;;
71490;SDS011;59307;50.060;9.150;2023-07-29T10:18:53;2.63;;;1.37;;
71490;SDS011;59307;50.060;9.150;2023-07-29T10:21:19;4.63;;;2.08;;
71490;SDS011;59307;50.060;9.150;2023-07-29T10:23:46;2.15;;;1.50;;
71490;SDS011;59307;50.060;9.150;2023-07-29T10:26:14;2.33;;;1.53;;
71490;SDS011;59307;50.060;9.150;2023-07-29T10:28:41;5.72;;;1.60;;
71490;SDS011;59307;50.060;9.150;2023-07-29T10:31:10;2.42;;;1.80;;
71490;SDS011;59307;50.060;9.150;2023-07-29T10:33:36;2.30;;;1.50;;
71490;SDS011;59307;50.060;9.150;2023-07-29T10:36:02;2.15;;;1.50;;
71490;SDS011;59307;50.060;9.150;2023-07-29T10:38:27;2.33;;;1.53;;
71490;SDS011;59307;50.060;9.150;2023-07-29T10:40:54;2.00;;;1.33;;
71490;SDS011;59307;50.060;9.150;2023-07-29T10:43:31;2.05;;;1.50;;
71490;SDS011;59307;50.060;9.150;2023-07-29T10:45:57;2.47;;;1.40;;
71490;SDS011;59307;50.060;9.150;2023-07-29T10:53:44;2.38;;;1.23;;
71490;SDS011;59307;50.060;9.150;2023-07-29T10:56:09;7.13;;;1.60;;
71490;SDS011;59307;50.060;9.150;2023-07-29T10:58:34;1.80;;;1.40;;
71490;SDS011;59307;50.060;9.150;2023-07-29T11:00:59;1.83;;;1.20;;
71490;SDS011;59307;50.060;9.150;2023-07-29T11:03:24;2.33;;;1.40;;
71490;SDS011;59307;50.060;9.150;2023-07-29T11:05:53;5.05;;;1.58;;
71490;SDS011;59307;50.060;9.150;2023-07-29T11:10:44;2.57;;;1.10;;
71490;SDS011;59307;50.060;9.150;2023-07-29T11:13:22;2.38;;;1.00;;
71490;SDS011;59307;50.060;9.150;2023-07-29T11:15:47;2.50;;;1.37;;
71490;SDS011;59307;50.060;9.150;2023-07-29T11:18:13;2.35;;;1.10;;
71490;SDS011;59307;50.060;9.150;2023-07-29T11:20:40;2.85;;;1.30;;
71490;SDS011;59307;50.060;9.150;2023-07-29T11:23:05;1.67;;;1.17;;
71490;SDS011;59307;50.060;9.150;2023-07-29T11:25:31;1.63;;;1.30;;
71490;SDS011;59307;50.060;9.150;2023-07-29T11:27:57;1.10;;;1.00;;
71490;SDS011;59307;50.060;9.150;2023-07-29T11:30:22;3.10;;;1.10;;
71490;SDS011;59307;50.060;9.150;2023-07-29T11:32:48;2.33;;;1.15;;
71490;SDS011;59307;50.060;9.150;2023-07-29T11:35:17;1.63;;;1.13;;
71490;SDS011;59307;50.060;9.150;2023-07-29T11:37:46;1.20;;;0.93;;
71490;SDS011;59307;50.060;9.150;2023-07-29T11:40:15;2.05;;;1.20;;
71490;SDS011;59307;50.060;9.150;2023-07-29T11:42:40;1.73;;;1.20;;
71490;SDS011;59307;50.060;9.150;2023-07-29T11:45:06;5.20;;;1.20;;
71490;SDS011;59307;50.060;9.150;2023-07-29T11:47:32;1.50;;;1.20;;
71490;SDS011;59307;50.060;9.150;2023-07-29T11:50:00;2.35;;;1.20;;
71490;SDS011;59307;50.060;9.150;2023-07-29T11:52:25;2.43;;;1.30;;
71490;SDS011;59307;50.060;9.150;2023-07-29T11:54:51;2.20;;;1.30;;
71490;SDS011;59307;50.060;9.150;2023-07-29T11:57:17;1.60;;;1.23;;
71490;SDS011;59307;50.060;9.150;2023-07-29T11:59:43;2.15;;;1.20;;
71490;SDS011;59307;50.060;9.150;2023-07-29T12:02:12;1.57;;;1.20;;
71490;SDS011;59307;50.060;9.150;2023-07-29T12:04:38;2.30;;;1.20;;
71490;SDS011;59307;50.060;9.150;2023-07-29T12:07:04;1.30;;;1.10;;
71490;SDS011;59307;50.060;9.150;2023-07-29T12:09:29;3.10;;;1.40;;
71490;SDS011;59307;50.060;9.150;2023-07-29T12:11:55;1.30;;;1.20;;
71490;SDS011;59307;50.060;9.150;2023-07-29T12:14:20;2.50;;;1.30;;
71490;SDS011;59307;50.060;9.150;2023-07-29T12:16:47;1.60;;;1.30;;
71490;SDS011;59307;50.060;9.150;2023-07-29T12:19:13;2.30;;;1.23;;
71490;SDS011;59307;50.060;9.150;2023-07-29T12:21:38;3.53;;;1.27;;
71490;SDS011;59307;50.060;9.150;2023-07-29T12:24:03;2.53;;;1.30;;
71490;SDS011;59307;50.060;9.150;2023-07-29T12:26:29;2.55;;;1.67;;
71490;SDS011;59307;50.060;9.150;2023-07-29T12:28:55;2.70;;;1.60;;
71490;SDS011;59307;50.060;9.150;2023-07-29T12:31:21;2.10;;;1.27;;
71490;SDS011;59307;50.060;9.150;2023-07-29T12:33:46;2.33;;;1.60;;
71490;SDS011;59307;50.060;9.150;2023-07-29T12:36:11;2.10;;;1.60;;
71490;SDS011;59307;50.060;9.150;2023-07-29T12:38:37;2.13;;;1.40;;
71490;SDS011;59307;50.060;9.150;2023-07-29T12:41:02;3.70;;;1.40;;
71490;SDS011;59307;50.060;9.150;2023-07-29T12:43:27;3.13;;;1.50;;
71490;SDS011;59307;50.060;9.150;2023-07-29T12:45:52;2.87;;;1.50;;
71490;SDS011;59307;50.060;9.150;2023-07-29T12:48:18;2.37;;;1.33;;
71490;SDS011;59307;50.060;9.150;2023-07-29T12:50:43;2.33;;;1.57;;
71490;SDS011;59307;50.060;9.150;2023-07-29T12:53:08;3.07;;;1.40;;
71490;SDS011;59307;50.060;9.150;2023-07-29T12:55:37;2.47;;;1.35;;
71490;SDS011;59307;50.060;9.150;2023-07-29T12:58:02;2.63;;;1.50;;
71490;SDS011;59307;50.060;9.150;2023-07-29T13:00:27;2.20;;;1.20;;
71490;SDS011;59307;50.060;9.150;2023-07-29T13:02:53;2.53;;;1.27;;
71490;SDS011;59307;50.060;9.150;2023-07-29T13:05:18;6.57;;;1.50;;
71490;SDS011;59307;50.060;9.150;2023-07-29T13:07:43;5.70;;;2.03;;
71490;SDS011;59307;50.060;9.150;2023-07-29T13:10:09;2.37;;;1.60;;
71490;SDS011;59307;50.060;9.150;2023-07-29T13:12:34;2.20;;;1.37;;
71490;SDS011;59307;50.060;9.150;2023-07-29T13:14:59;5.83;;;1.47;;
71490;SDS011;59307;50.060;9.150;2023-07-29T13:17:24;3.27;;;1.30;;
71490;SDS011;59307;50.060;9.150;2023-07-29T13:19:50;2.17;;;1.27;;
71490;SDS011;59307;50.060;9.150;2023-07-29T13:22:15;2.60;;;1.30;;
71490;SDS011;59307;50.060;9.150;2023-07-29T13:24:40;3.03;;;1.83;;
71490;SDS011;59307;50.060;9.150;2023-07-29T13:27:05;4.93;;;1.50;;
71490;SDS011;59307;50.060;9.150;2023-07-29T13:29:31;2.10;;;1.50;;
71490;SDS011;59307;50.060;9.150;2023-07-29T13:31:56;3.87;;;1.50;;
71490;SDS011;59307;50.060;9.150;2023-07-29T13:34:21;2.87;;;1.30;;
71490;SDS011;59307;50.060;9.150;2023-07-29T13:36:46;3.67;;;1.40;;
71490;SDS011;59307;50.060;9.150;2023-07-29T13:39:12;2.90;;;1.50;;
71490;SDS011;59307;50.060;9.150;2023-07-29T13:41:37;3.53;;;1.77;;
71490;SDS011;59307;50.060;9.150;2023-07-29T13:44:02;3.37;;;1.70;;
71490;SDS011;59307;50.060;9.150;2023-07-29T13:46:27;4.57;;;2.03;;
71490;SDS011;59307;50.060;9.150;2023-07-29T13:48:52;4.80;;;2.03;;
71490;SDS011;59307;50.060;9.150;2023-07-29T13:51:17;3.63;;;1.90;;
71490;SDS011;59307;50.060;9.150;2023-07-29T13:53:43;2.70;;;1.67;;
71490;SDS011;59307;50.060;9.150;2023-07-29T13:56:08;2.10;;;1.57;;
71490;SDS011;59307;50.060;9.150;2023-07-29T13:58:33;2.73;;;1.47;;
71490;SDS011;59307;50.060;9.150;2023-07-29T14:00:58;3.00;;;1.30;;
71490;SDS011;59307;50.060;9.150;2023-07-29T14:03:23;2.43;;;1.30;;
71490;SDS011;59307;50.060;9.150;2023-07-29T14:05:48;1.90;;;1.60;;
71490;SDS011;59307;50.060;9.150;2023-07-29T14:08:14;2.17;;;1.50;;
71490;SDS011;59307;50.060;9.150;2023-07-29T14:10:39;3.33;;;1.30;;
71490;SDS011;59307;50.060;9.150;2023-07-29T14:13:04;3.77;;;1.40;;
71490;SDS011;59307;50.060;9.150;2023-07-29T14:15:29;3.93;;;1.47;;
71490;SDS011;59307;50.060;9.150;2023-07-29T14:17:57;1.15;;;0.90;;
71490;SDS011;59307;50.060;9.150;2023-07-29T14:20:22;1.70;;;1.20;;
71490;SDS011;59307;50.060;9.150;2023-07-29T14:22:47;2.30;;;1.27;;
71490;SDS011;59307;50.060;9.150;2023-07-29T14:25:13;2.20;;;1.30;;
71490;SDS011;59307;50.060;9.150;2023-07-29T14:27:39;3.47;;;1.50;;
71490;SDS011;59307;50.060;9.150;2023-07-29T14:30:04;2.60;;;1.10;;
71490;SDS011;59307;50.060;9.150;2023-07-29T14:32:30;1.90;;;1.35;;
71490;SDS011;59307;50.060;9.150;2023-07-29T14:34:55;2.40;;;1.53;;
71490;SDS011;59307;50.060;9.150;2023-07-29T14:37:20;2.27;;;1.53;;
71490;SDS011;59307;50.060;9.150;2023-07-29T14:39:46;4.40;;;1.60;;
71490;SDS011;59307;50.060;9.150;2023-07-29T14:42:11;2.27;;;1.60;;
71490;SDS011;59307;50.060;9.150;2023-07-29T14:44:36;5.23;;;1.43;;
71490;SDS011;59307;50.060;9.150;2023-07-29T14:47:02;2.10;;;1.40;;
71490;SDS011;59307;50.060;9.150;2023-07-29T14:49:27;4.20;;;1.40;;
71490;SDS011;59307;50.060;9.150;2023-07-29T14:51:52;3.37;;;1.50;;
71490;SDS011;59307;50.060;9.150;2023-07-29T14:54:17;1.77;;;1.20;;
71490;SDS011;59307;50.060;9.150;2023-07-29T14:56:42;2.20;;;1.15;;